createdAt,value
2018-02-01T00:01:04.339Z,5.81
2018-02-01T00:03:30.711Z,5.27
2018-02-01T00:05:57.187Z,5.48
2018-02-01T00:08:23.515Z,5.56
2018-02-01T00:10:49.924Z,5.51
2018-02-01T00:13:16.255Z,5.36
2018-02-01T00:15:42.609Z,5.29
2018-02-01T00:18:09.019Z,5.40
2018-02-01T00:20:35.351Z,5.33
2018-02-01T00:23:01.687Z,5.37
2018-02-01T00:25:28.107Z,5.42
2018-02-01T00:27:54.427Z,5.45
2018-02-01T00:30:20.759Z,5.16
2018-02-01T00:32:47.139Z,4.97
2018-02-01T00:35:13.479Z,5.22
2018-02-01T00:37:39.858Z,5.41
2018-02-01T00:40:06.203Z,5.32
2018-02-01T00:42:32.552Z,5.31
2018-02-01T00:44:58.992Z,5.34
2018-02-01T00:47:25.321Z,5.26
2018-02-01T00:49:51.635Z,5.29
2018-02-01T00:52:18.006Z,5.27
2018-02-01T00:54:44.339Z,4.83
2018-02-01T00:57:10.668Z,5.11
2018-02-01T00:59:37.035Z,5.02
2018-02-01T01:02:03.427Z,5.14
2018-02-01T01:04:29.764Z,4.94
2018-02-01T01:06:56.151Z,5.03
2018-02-01T01:09:22.503Z,5.09
2018-02-01T01:11:48.863Z,5.06
2018-02-01T01:14:15.218Z,4.99
2018-02-01T01:16:41.535Z,4.96
2018-02-01T01:19:07.871Z,5.02
2018-02-01T01:21:34.239Z,5.17
2018-02-01T01:24:00.569Z,5.19
2018-02-01T01:26:26.935Z,5.27
2018-02-01T01:28:53.310Z,5.20
2018-02-01T01:31:19.646Z,5.15
2018-02-01T01:33:46.079Z,5.15
2018-02-01T01:36:12.487Z,5.09
2018-02-01T01:38:38.853Z,5.14
2018-02-01T01:41:05.175Z,4.86
2018-02-01T01:43:31.552Z,5.10
2018-02-01T01:46:09.934Z,5.01
2018-02-01T01:48:36.325Z,5.00
2018-02-01T01:51:02.700Z,4.96
2018-02-01T01:53:29.040Z,4.90
2018-02-01T01:55:55.428Z,4.84
2018-02-01T01:58:21.751Z,4.74
2018-02-01T02:00:48.123Z,4.72
2018-02-01T02:03:14.545Z,4.76
2018-02-01T02:05:40.914Z,4.66
2018-02-01T02:08:07.245Z,4.57
2018-02-01T02:10:33.576Z,4.43
2018-02-01T02:12:59.907Z,4.46
2018-02-01T02:15:26.263Z,4.62
2018-02-01T02:17:52.587Z,4.80
2018-02-01T02:20:18.972Z,4.85
2018-02-01T02:22:45.366Z,4.80
2018-02-01T02:25:11.699Z,4.68
2018-02-01T02:27:38.027Z,4.55
2018-02-01T02:30:04.403Z,4.70
2018-02-01T02:32:30.774Z,4.66
2018-02-01T02:34:57.211Z,4.42
2018-02-01T02:37:23.599Z,4.54
2018-02-01T02:39:50.059Z,4.58
2018-02-01T02:42:16.371Z,4.60
2018-02-01T02:44:42.748Z,4.45
2018-02-01T02:47:09.118Z,4.51
2018-02-01T02:49:35.467Z,4.63
2018-02-01T02:52:01.868Z,4.64
2018-02-01T02:54:28.353Z,4.62
2018-02-01T02:56:54.712Z,4.66
2018-02-01T02:59:21.085Z,4.49
2018-02-01T03:01:47.407Z,4.37
2018-02-01T03:04:13.759Z,4.28
2018-02-01T03:06:40.238Z,4.38
2018-02-01T03:09:06.611Z,4.41
2018-02-01T03:11:32.935Z,4.38
2018-02-01T03:13:59.278Z,4.34
2018-02-01T03:16:25.740Z,4.27
2018-02-01T03:18:52.173Z,4.36
2018-02-01T03:21:18.534Z,4.33
2018-02-01T03:23:44.872Z,4.36
2018-02-01T03:26:11.243Z,4.38
2018-02-01T03:28:37.574Z,4.26
2018-02-01T03:31:03.903Z,3.82
2018-02-01T03:33:30.296Z,4.22
2018-02-01T03:35:56.627Z,4.08
2018-02-01T03:38:22.955Z,4.15
2018-02-01T03:40:49.334Z,4.21
2018-02-01T03:43:15.788Z,4.08
2018-02-01T03:45:42.108Z,4.04
2018-02-01T03:48:08.474Z,3.93
2018-02-01T03:50:34.885Z,3.79
2018-02-01T03:53:01.232Z,3.77
2018-02-01T03:55:27.599Z,3.79
2018-02-01T03:57:53.955Z,3.68
2018-02-01T04:00:20.387Z,3.52
2018-02-01T04:02:46.787Z,3.64
2018-02-01T04:05:13.178Z,3.35
2018-02-01T04:07:39.548Z,3.55
2018-02-01T04:10:05.921Z,3.48
2018-02-01T04:12:32.287Z,3.50
2018-02-01T04:14:58.618Z,3.75
2018-02-01T04:17:24.999Z,3.80
2018-02-01T04:19:51.323Z,3.74
2018-02-01T04:22:17.722Z,3.85
2018-02-01T04:24:44.090Z,3.49
2018-02-01T04:27:10.422Z,3.77
2018-02-01T04:29:36.751Z,3.72
2018-02-01T04:32:03.095Z,3.62
2018-02-01T04:34:29.435Z,3.69
2018-02-01T04:36:55.771Z,3.69
2018-02-01T04:39:22.143Z,3.66
2018-02-01T04:41:48.490Z,3.78
2018-02-01T04:44:14.836Z,3.74
2018-02-01T04:46:41.219Z,3.87
2018-02-01T04:49:07.559Z,3.76
2018-02-01T04:51:33.917Z,3.69
2018-02-01T04:54:00.278Z,3.46
2018-02-01T04:56:26.596Z,3.49
2018-02-01T04:58:52.928Z,3.37
2018-02-01T05:01:19.285Z,3.41
2018-02-01T05:03:45.707Z,3.31
2018-02-01T05:06:12.043Z,3.26
2018-02-01T05:08:38.370Z,3.44
2018-02-01T05:11:04.756Z,3.51
2018-02-01T05:13:31.091Z,3.48
2018-02-01T05:15:57.522Z,3.45
2018-02-01T05:18:23.932Z,2.75
2018-02-01T05:20:50.253Z,3.03
2018-02-01T05:23:16.686Z,3.30
2018-02-01T05:25:43.223Z,3.28
2018-02-01T05:28:09.571Z,3.38
2018-02-01T05:30:35.944Z,3.24
2018-02-01T05:33:02.291Z,3.26
2018-02-01T05:35:28.626Z,3.29
2018-02-01T05:37:54.978Z,3.32
2018-02-01T05:40:21.347Z,3.39
2018-02-01T05:42:47.770Z,3.20
2018-02-01T05:45:14.098Z,3.30
2018-02-01T05:47:40.472Z,3.35
2018-02-01T05:50:06.870Z,3.24
2018-02-01T05:52:33.272Z,3.22
2018-02-01T05:54:59.606Z,3.01
2018-02-01T05:57:26.024Z,3.19
2018-02-01T05:59:52.399Z,3.25
2018-02-01T06:02:18.901Z,3.21
2018-02-01T06:04:45.280Z,3.17
2018-02-01T06:07:11.781Z,3.34
2018-02-01T06:09:38.268Z,3.37
2018-02-01T06:12:04.585Z,3.29
2018-02-01T06:14:31.022Z,3.33
2018-02-01T06:16:57.480Z,3.40
2018-02-01T06:19:23.864Z,3.02
2018-02-01T06:21:50.208Z,3.26
2018-02-01T06:24:16.571Z,3.39
2018-02-01T06:26:42.983Z,3.20
2018-02-01T06:29:09.362Z,3.48
2018-02-01T06:31:35.809Z,3.39
2018-02-01T06:34:02.285Z,3.32
2018-02-01T06:36:28.620Z,3.35
2018-02-01T06:38:55.043Z,3.46
2018-02-01T06:41:21.547Z,3.58
2018-02-01T06:43:48.064Z,3.66
2018-02-01T06:46:14.483Z,3.59
2018-02-01T06:48:40.827Z,3.77
2018-02-01T06:51:07.263Z,3.78
2018-02-01T06:53:33.627Z,3.78
2018-02-01T06:55:59.962Z,3.88
2018-02-01T06:58:26.296Z,3.86
2018-02-01T07:00:55.504Z,4.01
2018-02-01T07:03:21.965Z,4.09
2018-02-01T07:05:48.335Z,4.08
2018-02-01T07:08:14.679Z,4.11
2018-02-01T07:10:41.039Z,4.19
2018-02-01T07:13:07.517Z,4.22
2018-02-01T07:15:34.180Z,4.20
2018-02-01T07:18:00.699Z,4.24
2018-02-01T07:20:27.142Z,4.37
2018-02-01T07:22:53.671Z,4.40
2018-02-01T07:25:20.100Z,4.36
2018-02-01T07:27:46.492Z,4.47
2018-02-01T07:30:12.858Z,4.52
2018-02-01T07:32:39.251Z,4.49
2018-02-01T07:35:05.596Z,4.44
2018-02-01T07:37:31.928Z,4.51
2018-02-01T07:39:58.388Z,4.44
2018-02-01T07:42:24.905Z,4.56
2018-02-01T07:44:51.287Z,4.71
2018-02-01T07:47:17.730Z,4.92
2018-02-01T07:49:44.095Z,5.07
2018-02-01T07:52:10.552Z,4.97
2018-02-01T07:54:36.985Z,5.19
2018-02-01T07:57:03.343Z,5.36
2018-02-01T07:59:29.789Z,5.53
2018-02-01T08:01:56.124Z,5.70
2018-02-01T08:04:22.451Z,5.93
2018-02-01T08:06:48.947Z,6.04
2018-02-01T08:09:15.279Z,6.00
2018-02-01T08:11:41.663Z,6.23
2018-02-01T08:14:08.075Z,6.40
2018-02-01T08:16:34.478Z,6.49
2018-02-01T08:19:00.801Z,6.63
2018-02-01T08:21:27.215Z,6.80
2018-02-01T08:23:53.574Z,6.85
2018-02-01T08:26:19.939Z,6.99
2018-02-01T08:28:46.368Z,6.68
2018-02-01T08:31:12.714Z,6.92
2018-02-01T08:33:39.085Z,7.09
2018-02-01T08:36:05.483Z,7.29
2018-02-01T08:38:31.822Z,7.42
2018-02-01T08:40:58.183Z,7.51
2018-02-01T08:43:24.730Z,7.60
2018-02-01T08:45:51.092Z,7.71
2018-02-01T08:48:17.432Z,7.78
2018-02-01T08:50:43.792Z,7.90
2018-02-01T08:53:10.224Z,7.93
2018-02-01T08:55:36.591Z,7.99
2018-02-01T08:58:02.951Z,8.01
2018-02-01T09:00:29.483Z,7.87
2018-02-01T09:02:55.816Z,7.88
2018-02-01T09:05:22.192Z,7.62
2018-02-01T09:07:48.652Z,7.72
2018-02-01T09:10:14.983Z,7.73
2018-02-01T09:12:41.403Z,7.74
2018-02-01T09:15:07.790Z,7.82
2018-02-01T09:17:34.282Z,7.93
2018-02-01T09:20:00.716Z,8.01
2018-02-01T09:22:27.104Z,8.13
2018-02-01T09:24:53.461Z,8.23
2018-02-01T09:27:19.790Z,8.38
2018-02-01T09:29:46.179Z,8.46
2018-02-01T09:32:12.519Z,8.39
2018-02-01T09:34:38.930Z,8.34
2018-02-01T09:37:05.363Z,8.52
2018-02-01T09:39:31.712Z,8.39
2018-02-01T09:41:58.038Z,8.49
2018-02-01T09:44:24.443Z,8.55
2018-02-01T09:46:50.897Z,8.57
2018-02-01T09:49:17.192Z,8.59
2018-02-01T09:51:43.567Z,8.53
2018-02-01T09:54:09.895Z,8.57
2018-02-01T09:56:36.231Z,8.43
2018-02-01T09:59:02.521Z,8.59
2018-02-01T10:01:28.887Z,8.51
2018-02-01T10:03:55.224Z,8.61
2018-02-01T10:06:21.643Z,8.85
2018-02-01T10:08:47.947Z,8.90
2018-02-01T10:11:14.267Z,8.83
2018-02-01T10:13:40.659Z,8.85
2018-02-01T10:16:07.016Z,9.07
2018-02-01T10:18:33.476Z,9.11
2018-02-01T10:20:59.848Z,9.29
2018-02-01T10:23:26.208Z,9.42
2018-02-01T10:25:52.543Z,9.35
2018-02-01T10:28:18.888Z,9.46
2018-02-01T10:30:45.232Z,9.41
2018-02-01T10:33:11.511Z,9.46
2018-02-01T10:35:37.847Z,9.54
2018-02-01T10:38:04.329Z,9.67
2018-02-01T10:40:30.694Z,9.80
2018-02-01T10:42:57.099Z,9.44
2018-02-01T10:45:23.427Z,9.47
2018-02-01T10:47:49.876Z,9.37
2018-02-01T10:50:16.167Z,9.69
2018-02-01T10:52:42.557Z,9.79
2018-02-01T10:55:08.882Z,9.95
2018-02-01T10:57:35.301Z,10.00
2018-02-01T11:00:01.688Z,10.05
2018-02-01T11:02:28.063Z,9.95
2018-02-01T11:04:54.452Z,10.00
2018-02-01T11:07:20.783Z,10.11
2018-02-01T11:09:47.166Z,10.28
2018-02-01T11:12:13.435Z,10.21
2018-02-01T11:14:39.760Z,10.34
2018-02-01T11:17:06.134Z,10.24
2018-02-01T11:19:32.517Z,10.32
2018-02-01T11:21:58.816Z,10.26
2018-02-01T11:24:25.205Z,10.49
2018-02-01T11:26:51.524Z,10.57
2018-02-01T11:29:18.024Z,10.55
2018-02-01T11:31:44.375Z,10.49
2018-02-01T11:34:10.703Z,10.44
2018-02-01T11:36:37.096Z,10.52
2018-02-01T11:39:03.560Z,10.65
2018-02-01T11:41:29.828Z,10.75
2018-02-01T11:43:56.135Z,10.66
2018-02-01T11:46:22.472Z,10.68
2018-02-01T11:48:48.900Z,10.72
2018-02-01T11:51:15.303Z,10.74
2018-02-01T11:53:41.635Z,10.87
2018-02-01T11:56:07.955Z,10.97
2018-02-01T11:58:34.295Z,10.85
2018-02-01T12:01:00.619Z,10.76
2018-02-01T12:03:27.012Z,10.86
2018-02-01T12:05:53.400Z,10.80
2018-02-01T12:08:19.759Z,10.83
2018-02-01T12:10:46.149Z,10.88
2018-02-01T12:13:12.421Z,10.95
2018-02-01T12:15:38.708Z,11.03
2018-02-01T12:18:05.019Z,11.06
2018-02-01T12:20:31.279Z,11.12
2018-02-01T12:22:57.611Z,10.94
2018-02-01T12:25:23.940Z,10.95
2018-02-01T12:27:50.215Z,11.10
2018-02-01T12:30:16.508Z,11.08
2018-02-01T12:32:43.006Z,11.04
2018-02-01T12:35:09.335Z,11.13
2018-02-01T12:37:35.601Z,11.19
2018-02-01T12:40:01.933Z,11.25
2018-02-01T12:42:28.201Z,11.28
2018-02-01T12:44:54.471Z,11.15
2018-02-01T12:47:20.747Z,11.26
2018-02-01T12:49:47.032Z,11.24
2018-02-01T12:52:13.346Z,11.17
2018-02-01T12:54:39.616Z,11.28
2018-02-01T12:57:05.884Z,11.38
2018-02-01T12:59:32.203Z,11.42
2018-02-01T13:01:58.464Z,11.49
2018-02-01T13:04:24.723Z,11.46
2018-02-01T13:06:51.100Z,11.49
2018-02-01T13:09:17.374Z,11.42
2018-02-01T13:11:43.655Z,11.44
2018-02-01T13:14:09.995Z,11.45
2018-02-01T13:16:37.269Z,11.48
2018-02-01T13:19:03.536Z,11.37
2018-02-01T13:21:29.808Z,11.35
2018-02-01T13:23:56.088Z,11.46
2018-02-01T13:26:22.372Z,11.51
2018-02-01T13:28:48.715Z,11.53
2018-02-01T13:31:15.084Z,11.53
2018-02-01T13:33:41.379Z,11.48
2018-02-01T13:36:07.813Z,11.55
2018-02-01T13:38:34.119Z,11.60
2018-02-01T13:41:00.555Z,11.58
2018-02-01T13:43:26.839Z,11.59
2018-02-01T13:45:53.195Z,11.61
2018-02-01T13:48:19.486Z,11.70
2018-02-01T13:50:45.776Z,11.70
2018-02-01T13:53:12.231Z,11.74
2018-02-01T13:55:38.534Z,11.75
2018-02-01T13:58:04.824Z,11.74
2018-02-01T14:00:31.176Z,11.65
2018-02-01T14:02:57.485Z,11.52
2018-02-01T14:05:23.768Z,11.53
2018-02-01T14:07:50.095Z,11.53
2018-02-01T14:10:16.408Z,11.49
2018-02-01T14:12:42.693Z,11.42
2018-02-01T14:15:08.963Z,11.44
2018-02-01T14:17:35.271Z,11.50
2018-02-01T14:20:01.579Z,11.53
2018-02-01T14:22:27.855Z,11.52
2018-02-01T14:24:54.151Z,11.51
2018-02-01T14:27:20.439Z,11.54
2018-02-01T14:29:46.763Z,11.50
2018-02-01T14:32:13.065Z,11.52
2018-02-01T14:34:39.426Z,11.48
2018-02-01T14:37:05.963Z,11.34
2018-02-01T14:39:32.226Z,11.35
2018-02-01T14:41:58.515Z,11.37
2018-02-01T14:44:24.827Z,11.38
2018-02-01T14:46:51.224Z,11.43
2018-02-01T14:49:17.498Z,11.29
2018-02-01T14:51:43.831Z,11.32
2018-02-01T14:54:10.118Z,11.35
2018-02-01T14:56:36.395Z,11.38
2018-02-01T14:59:02.688Z,11.25
2018-02-01T15:01:29.012Z,11.25
2018-02-01T15:03:55.356Z,11.26
2018-02-01T15:06:21.619Z,11.22
2018-02-01T15:08:47.891Z,11.21
2018-02-01T15:11:14.309Z,11.22
2018-02-01T15:13:40.567Z,11.17
2018-02-01T15:16:06.843Z,11.18
2018-02-01T15:18:33.153Z,11.14
2018-02-01T15:20:59.411Z,11.13
2018-02-01T15:23:25.800Z,11.07
2018-02-01T15:25:52.072Z,11.01
2018-02-01T15:28:18.364Z,11.01
2018-02-01T15:30:44.707Z,11.02
2018-02-01T15:33:11.259Z,11.01
2018-02-01T15:35:37.619Z,10.98
2018-02-01T15:38:03.944Z,10.96
2018-02-01T15:40:30.219Z,10.96
2018-02-01T15:42:56.484Z,10.94
2018-02-01T15:45:22.820Z,10.90
2018-02-01T15:47:49.170Z,10.85
2018-02-01T15:50:15.451Z,10.81
2018-02-01T15:52:41.788Z,10.77
2018-02-01T15:55:08.443Z,10.72
2018-02-01T15:57:34.747Z,10.67
2018-02-01T16:00:01.072Z,10.57
2018-02-01T16:02:27.462Z,10.58
2018-02-01T16:04:54.004Z,10.53
2018-02-01T16:07:20.534Z,10.52
2018-02-01T16:09:47.021Z,10.50
2018-02-01T16:12:13.283Z,10.42
2018-02-01T16:14:39.691Z,10.42
2018-02-01T16:17:06.064Z,10.36
2018-02-01T16:19:32.496Z,10.30
2018-02-01T16:21:58.822Z,10.27
2018-02-01T16:24:25.131Z,10.27
2018-02-01T16:26:51.578Z,10.26
2018-02-01T16:29:17.883Z,10.23
2018-02-01T16:31:44.169Z,10.19
2018-02-01T16:34:10.447Z,10.16
2018-02-01T16:36:36.826Z,10.15
2018-02-01T16:39:03.187Z,10.07
2018-02-01T16:41:29.480Z,10.04
2018-02-01T16:43:55.760Z,9.98
2018-02-01T16:46:22.088Z,9.92
2018-02-01T16:48:48.400Z,9.98
2018-02-01T16:51:14.704Z,9.89
2018-02-01T16:53:41.647Z,9.87
2018-02-01T16:56:08.018Z,9.77
2018-02-01T16:58:34.407Z,9.73
2018-02-01T17:01:00.700Z,9.72
2018-02-01T17:03:27.007Z,9.73
2018-02-01T17:05:53.397Z,9.69
2018-02-01T17:08:19.703Z,9.66
2018-02-01T17:10:46.021Z,9.64
2018-02-01T17:13:12.493Z,9.62
2018-02-01T17:15:38.920Z,9.59
2018-02-01T17:18:05.374Z,9.53
2018-02-01T17:20:31.792Z,9.50
2018-02-01T17:22:58.068Z,9.48
2018-02-01T17:25:24.340Z,9.44
2018-02-01T17:27:50.668Z,9.38
2018-02-01T17:30:17.111Z,9.35
2018-02-01T17:32:43.480Z,9.32
2018-02-01T17:35:09.760Z,9.30
2018-02-01T17:37:36.060Z,9.26
2018-02-01T17:40:02.408Z,9.26
2018-02-01T17:42:28.668Z,9.19
2018-02-01T17:44:54.927Z,9.09
2018-02-01T17:47:21.237Z,9.06
2018-02-01T17:49:47.500Z,8.93
2018-02-01T17:52:13.767Z,8.95
2018-02-01T17:54:40.118Z,8.86
2018-02-01T17:57:06.390Z,8.79
2018-02-01T17:59:32.673Z,8.67
2018-02-01T18:01:59.063Z,8.63
2018-02-01T18:04:25.333Z,8.58
2018-02-01T18:06:51.648Z,8.51
2018-02-01T18:09:18.779Z,8.42
2018-02-01T18:11:45.644Z,8.37
2018-02-01T18:14:11.917Z,8.31
2018-02-01T18:16:38.196Z,8.23
2018-02-01T18:19:04.521Z,8.25
2018-02-01T18:21:30.780Z,8.22
2018-02-01T18:23:57.065Z,8.14
2018-02-01T18:26:23.383Z,8.19
2018-02-01T18:28:49.645Z,8.09
2018-02-01T18:31:15.924Z,8.02
2018-02-01T18:33:42.243Z,7.97
2018-02-01T18:36:08.536Z,7.96
2018-02-01T18:38:34.820Z,7.87
2018-02-01T18:41:01.141Z,7.84
2018-02-01T18:43:27.420Z,7.83
2018-02-01T18:45:53.703Z,7.82
2018-02-01T18:48:20.028Z,7.66
2018-02-01T18:50:46.307Z,7.69
2018-02-01T18:53:12.573Z,7.56
2018-02-01T18:55:38.877Z,7.53
2018-02-01T18:58:05.165Z,7.50
2018-02-01T19:00:31.493Z,7.54
2018-02-01T19:02:57.769Z,7.52
2018-02-01T19:05:24.176Z,7.44
2018-02-01T19:07:50.492Z,7.39
2018-02-01T19:10:16.759Z,7.42
2018-02-01T19:12:43.037Z,7.32
2018-02-01T19:15:09.366Z,7.25
2018-02-01T19:17:36.580Z,7.38
2018-02-01T19:20:02.913Z,7.22
2018-02-01T19:22:29.465Z,7.29
2018-02-01T19:24:55.754Z,7.36
2018-02-01T19:27:22.021Z,7.43
2018-02-01T19:29:48.333Z,7.50
2018-02-01T19:32:14.626Z,7.45
2018-02-01T19:34:40.892Z,7.41
2018-02-01T19:37:07.200Z,7.18
2018-02-01T19:39:33.460Z,7.30
2018-02-01T19:41:59.751Z,7.40
2018-02-01T19:44:26.060Z,7.42
2018-02-01T19:46:52.363Z,7.50
2018-02-01T19:49:18.619Z,7.57
2018-02-01T19:51:44.940Z,7.49
2018-02-01T19:54:11.883Z,7.73
2018-02-01T19:56:38.127Z,7.81
2018-02-01T19:59:04.408Z,7.94
2018-02-01T20:01:30.671Z,8.11
2018-02-01T20:03:56.984Z,8.25
2018-02-01T20:06:23.232Z,8.40
2018-02-01T20:08:49.522Z,8.54
2018-02-01T20:11:15.839Z,8.64
2018-02-01T20:13:42.103Z,8.68
2018-02-01T20:16:08.363Z,8.74
2018-02-01T20:18:34.765Z,8.76
2018-02-01T20:21:01.030Z,8.85
2018-02-01T20:23:27.300Z,8.82
2018-02-01T20:25:53.609Z,8.89
2018-02-01T20:28:19.863Z,9.01
2018-02-01T20:30:46.137Z,9.05
2018-02-01T20:33:12.444Z,9.12
2018-02-01T20:35:38.712Z,9.06
2018-02-01T20:38:04.964Z,9.12
2018-02-01T20:40:31.283Z,9.12
2018-02-01T20:42:57.546Z,9.14
2018-02-01T20:45:23.812Z,9.17
2018-02-01T20:47:50.123Z,9.19
2018-02-01T20:50:16.383Z,9.21
2018-02-01T20:52:42.654Z,9.18
2018-02-01T20:55:08.971Z,9.20
2018-02-01T20:57:35.219Z,9.19
2018-02-01T21:00:01.492Z,9.15
2018-02-01T21:02:27.828Z,9.11
2018-02-01T21:04:54.103Z,9.02
2018-02-01T21:07:20.376Z,9.00
2018-02-01T21:09:46.772Z,8.95
2018-02-01T21:12:13.124Z,8.92
2018-02-01T21:14:39.388Z,8.92
2018-02-01T21:17:05.663Z,8.93
2018-02-01T21:19:32.067Z,8.90
2018-02-01T21:21:58.304Z,8.88
2018-02-01T21:24:24.559Z,8.86
2018-02-01T21:26:51.005Z,8.86
2018-02-01T21:29:17.295Z,8.88
2018-02-01T21:31:43.591Z,8.86
2018-02-01T21:34:09.862Z,8.93
2018-02-01T21:36:36.120Z,8.99
2018-02-01T21:39:02.485Z,9.01
2018-02-01T21:41:28.786Z,9.06
2018-02-01T21:43:55.091Z,9.09
2018-02-01T21:46:21.383Z,9.06
2018-02-01T21:48:47.651Z,9.08
2018-02-01T21:51:14.008Z,9.10
2018-02-01T21:53:40.315Z,9.10
2018-02-01T21:56:06.627Z,9.08
2018-02-01T21:58:33.000Z,9.07
2018-02-01T22:00:59.315Z,8.97
2018-02-01T22:03:25.639Z,8.96
2018-02-01T22:05:51.992Z,8.79
2018-02-01T22:08:18.303Z,8.81
2018-02-01T22:10:44.615Z,8.72
2018-02-01T22:13:10.948Z,8.81
2018-02-01T22:15:37.275Z,8.87
2018-02-01T22:18:03.750Z,8.94
2018-02-01T22:20:30.087Z,8.93
2018-02-01T22:22:56.419Z,8.98
2018-02-01T22:25:22.775Z,9.07
2018-02-01T22:27:49.176Z,9.01
2018-02-01T22:30:15.506Z,9.12
2018-02-01T22:32:41.865Z,9.12
2018-02-01T22:35:08.288Z,9.10
2018-02-01T22:37:34.601Z,9.08
2018-02-01T22:40:00.955Z,9.18
2018-02-01T22:42:27.279Z,9.23
2018-02-01T22:44:53.594Z,9.33
2018-02-01T22:47:20.144Z,9.22
2018-02-01T22:49:46.460Z,9.28
2018-02-01T22:52:12.771Z,9.27
2018-02-01T22:54:39.139Z,9.29
2018-02-01T22:57:05.459Z,9.31
2018-02-01T22:59:31.783Z,9.37
2018-02-01T23:01:58.142Z,9.37
2018-02-01T23:04:24.502Z,9.35
2018-02-01T23:06:50.815Z,9.43
2018-02-01T23:09:17.158Z,9.47
2018-02-01T23:11:43.587Z,9.48
2018-02-01T23:14:09.908Z,9.51
2018-02-01T23:16:36.240Z,9.61
2018-02-01T23:19:02.603Z,9.58
2018-02-01T23:21:28.936Z,9.62
2018-02-01T23:23:55.282Z,9.62
2018-02-01T23:26:21.936Z,9.64
2018-02-01T23:28:48.332Z,9.65
2018-02-01T23:31:14.661Z,9.64
2018-02-01T23:33:41.039Z,9.65
2018-02-01T23:36:07.361Z,9.67
2018-02-01T23:38:33.673Z,9.77
2018-02-01T23:41:00.031Z,9.79
2018-02-01T23:43:26.335Z,9.81
2018-02-01T23:45:52.703Z,9.82
2018-02-01T23:48:19.048Z,9.83
2018-02-01T23:50:45.449Z,9.84
2018-02-01T23:53:11.759Z,9.86
2018-02-01T23:55:38.075Z,9.81
2018-02-01T23:58:04.466Z,9.86
